createdAt,value
2022-11-21T00:00:46.711Z,94.00
2022-11-21T00:03:13.988Z,94.00
2022-11-21T00:05:43.094Z,94.10
2022-11-21T00:08:15.034Z,94.30
2022-11-21T00:10:42.095Z,94.30
2022-11-21T00:13:17.033Z,94.40
2022-11-21T00:15:44.201Z,94.40
2022-11-21T00:18:12.769Z,94.40
2022-11-21T00:20:41.007Z,94.50
2022-11-21T00:23:08.551Z,94.60
2022-11-21T00:25:35.661Z,94.70
2022-11-21T00:28:02.452Z,94.70
2022-11-21T00:30:30.124Z,94.70
2022-11-21T00:32:58.671Z,94.80
2022-11-21T00:35:25.600Z,95.00
2022-11-21T00:37:52.317Z,94.90
2022-11-21T00:40:19.133Z,94.80
2022-11-21T00:42:45.863Z,94.70
2022-11-21T00:45:12.673Z,94.70
2022-11-21T00:47:39.477Z,94.60
2022-11-21T00:50:06.409Z,94.60
2022-11-21T00:52:33.221Z,94.50
2022-11-21T00:54:59.945Z,94.60
2022-11-21T00:57:26.667Z,94.40
2022-11-21T00:59:53.441Z,94.20
2022-11-21T01:02:20.153Z,94.10
2022-11-21T01:04:46.858Z,94.00
2022-11-21T01:07:15.003Z,94.10
2022-11-21T01:09:41.827Z,93.80
2022-11-21T01:12:08.638Z,93.90
2022-11-21T01:14:35.740Z,93.80
2022-11-21T01:17:02.543Z,93.90
2022-11-21T01:19:29.385Z,93.80
2022-11-21T01:21:56.147Z,93.60
2022-11-21T01:24:22.869Z,93.70
2022-11-21T01:26:50.975Z,93.70
2022-11-21T01:29:17.881Z,93.40
2022-11-21T01:31:44.649Z,93.40
2022-11-21T01:34:11.758Z,93.60
2022-11-21T01:36:38.461Z,93.60
2022-11-21T01:39:07.385Z,93.40
2022-11-21T01:41:40.655Z,93.50
2022-11-21T01:44:23.510Z,93.60
2022-11-21T01:46:51.647Z,93.60
2022-11-21T01:49:23.406Z,93.60
2022-11-21T01:52:02.827Z,93.30
2022-11-21T01:54:56.542Z,93.10
2022-11-21T01:57:28.517Z,93.10
2022-11-21T02:00:00.745Z,93.10
2022-11-21T02:02:34.449Z,93.20
2022-11-21T02:05:05.172Z,93.10
2022-11-21T02:07:37.342Z,92.80
2022-11-21T02:10:05.268Z,92.40
2022-11-21T02:12:38.051Z,92.30
2022-11-21T02:15:05.475Z,92.40
2022-11-21T02:17:33.112Z,92.00
2022-11-21T02:20:02.778Z,91.90
2022-11-21T02:22:46.741Z,92.10
2022-11-21T02:25:17.678Z,92.20
2022-11-21T02:27:46.910Z,92.50
2022-11-21T02:30:13.830Z,92.80
2022-11-21T02:32:46.653Z,92.90
2022-11-21T02:35:15.937Z,93.00
2022-11-21T02:37:44.906Z,93.10
2022-11-21T02:40:22.718Z,93.20
2022-11-21T02:42:59.273Z,93.40
2022-11-21T02:45:40.115Z,93.40
2022-11-21T02:48:07.036Z,93.20
2022-11-21T02:50:36.274Z,93.10
2022-11-21T02:53:05.230Z,92.90
2022-11-21T02:55:32.025Z,92.90
2022-11-21T02:58:03.299Z,92.80
2022-11-21T03:00:32.334Z,92.90
2022-11-21T03:03:00.575Z,93.00
2022-11-21T03:05:27.793Z,92.90
2022-11-21T03:07:54.615Z,92.80
2022-11-21T03:10:21.576Z,92.70
2022-11-21T03:12:48.444Z,92.70
2022-11-21T03:15:16.424Z,92.70
2022-11-21T03:17:43.691Z,92.60
2022-11-21T03:20:10.980Z,92.70
2022-11-21T03:22:37.971Z,92.80
2022-11-21T03:25:05.047Z,92.70
2022-11-21T03:27:31.791Z,92.70
2022-11-21T03:29:58.587Z,92.60
2022-11-21T03:32:25.328Z,92.70
2022-11-21T03:34:52.076Z,92.60
2022-11-21T03:37:19.039Z,92.70
2022-11-21T03:39:45.811Z,92.50
2022-11-21T03:42:12.948Z,92.50
2022-11-21T03:44:39.757Z,92.50
2022-11-21T03:47:06.608Z,92.70
2022-11-21T03:49:33.338Z,92.50
2022-11-21T03:52:00.126Z,92.40
2022-11-21T03:54:27.184Z,92.50
2022-11-21T03:56:54.141Z,92.40
2022-11-21T03:59:20.910Z,92.60
2022-11-21T04:01:47.681Z,92.70
2022-11-21T04:04:14.468Z,92.60
2022-11-21T04:06:41.213Z,92.60
2022-11-21T04:09:07.975Z,92.80
2022-11-21T04:11:34.701Z,92.80
2022-11-21T04:14:01.453Z,93.10
2022-11-21T04:16:28.368Z,92.80
2022-11-21T04:18:55.085Z,93.10
2022-11-21T04:21:21.836Z,93.30
2022-11-21T04:23:48.578Z,93.30
2022-11-21T04:26:15.308Z,93.10
2022-11-21T04:28:42.089Z,93.00
2022-11-21T04:31:11.069Z,93.00
2022-11-21T04:33:41.349Z,93.20
2022-11-21T04:36:08.996Z,93.10
2022-11-21T04:38:36.426Z,93.10
2022-11-21T04:41:03.413Z,93.00
2022-11-21T04:43:30.159Z,93.00
2022-11-21T04:45:56.888Z,92.90
2022-11-21T04:48:24.651Z,92.50
2022-11-21T04:50:51.447Z,92.50
2022-11-21T04:53:18.210Z,92.30
2022-11-21T04:55:44.968Z,92.10
2022-11-21T04:58:11.736Z,92.00
2022-11-21T05:00:38.513Z,92.10
2022-11-21T05:03:06.579Z,92.30
2022-11-21T05:05:33.841Z,92.40
2022-11-21T05:08:00.588Z,92.40
2022-11-21T05:10:27.554Z,92.30
2022-11-21T05:13:16.881Z,92.30
2022-11-21T05:15:44.054Z,91.60
2022-11-21T05:18:10.866Z,91.70
2022-11-21T05:20:37.632Z,91.70
2022-11-21T05:23:04.698Z,91.60
2022-11-21T05:25:31.458Z,91.50
2022-11-21T05:27:58.438Z,91.10
2022-11-21T05:30:25.203Z,91.40
2022-11-21T05:32:52.008Z,91.30
2022-11-21T05:35:18.795Z,91.10
2022-11-21T05:37:45.528Z,91.00
2022-11-21T05:40:12.460Z,91.20
2022-11-21T05:42:59.537Z,91.20
2022-11-21T05:45:26.408Z,91.40
2022-11-21T05:47:53.132Z,91.10
2022-11-21T05:50:19.861Z,90.80
2022-11-21T05:52:46.622Z,90.80
2022-11-21T05:55:13.435Z,90.90
2022-11-21T05:57:40.234Z,91.00
2022-11-21T06:00:07.664Z,91.00
2022-11-21T06:02:52.922Z,90.90
2022-11-21T06:05:19.679Z,91.00
2022-11-21T06:07:46.516Z,91.00
2022-11-21T06:10:13.378Z,91.20
2022-11-21T06:12:40.084Z,91.10
2022-11-21T06:15:07.417Z,91.20
2022-11-21T06:17:34.159Z,91.20
2022-11-21T06:20:01.631Z,91.20
2022-11-21T06:22:28.517Z,91.20
2022-11-21T06:24:55.326Z,91.20
2022-11-21T06:27:22.186Z,91.10
2022-11-21T06:29:48.894Z,91.10
2022-11-21T06:32:15.822Z,91.00
2022-11-21T06:34:42.593Z,91.00
2022-11-21T06:37:09.335Z,90.90
2022-11-21T06:39:36.063Z,90.70
2022-11-21T06:42:02.814Z,90.60
2022-11-21T06:44:29.716Z,90.60
2022-11-21T06:46:56.725Z,90.90
2022-11-21T06:49:23.641Z,90.80
2022-11-21T06:51:50.423Z,90.80
2022-11-21T06:54:17.360Z,90.80
2022-11-21T06:56:44.396Z,90.90
2022-11-21T06:59:11.409Z,91.10
2022-11-21T07:01:38.218Z,91.10
2022-11-21T07:04:05.140Z,90.90
2022-11-21T07:06:33.963Z,91.10
2022-11-21T07:09:31.068Z,90.90
2022-11-21T07:11:47.877Z,91.00
2022-11-21T07:14:14.588Z,91.10
2022-11-21T07:16:41.322Z,90.80
2022-11-21T07:19:08.056Z,90.80
2022-11-21T07:21:34.819Z,90.70
2022-11-21T07:24:01.582Z,90.40
2022-11-21T07:26:28.449Z,90.20
2022-11-21T07:28:55.131Z,90.80
2022-11-21T07:31:21.865Z,90.40
2022-11-21T07:33:48.628Z,90.30
2022-11-21T07:36:15.658Z,90.50
2022-11-21T07:38:42.579Z,90.40
2022-11-21T07:41:09.768Z,90.50
2022-11-21T07:43:36.560Z,90.50
2022-11-21T07:46:03.278Z,90.60
2022-11-21T07:48:30.153Z,90.60
2022-11-21T07:50:56.862Z,90.60
2022-11-21T07:53:24.132Z,90.80
2022-11-21T07:55:50.905Z,90.90
2022-11-21T07:58:17.994Z,90.70
2022-11-21T08:00:44.778Z,90.90
2022-11-21T08:03:13.038Z,90.70
2022-11-21T08:05:41.884Z,90.30
2022-11-21T08:08:10.039Z,90.10
2022-11-21T08:10:41.731Z,90.90
2022-11-21T08:13:08.886Z,90.80
2022-11-21T08:15:36.539Z,89.60
2022-11-21T08:18:14.942Z,90.30
2022-11-21T08:20:42.630Z,89.60
2022-11-21T08:23:10.736Z,89.80
2022-11-21T08:25:39.117Z,90.20
2022-11-21T08:28:06.956Z,90.30
2022-11-21T08:30:34.537Z,90.30
2022-11-21T08:33:01.898Z,90.40
2022-11-21T08:35:30.952Z,88.70
2022-11-21T08:37:59.218Z,88.60
2022-11-21T08:40:28.336Z,88.60
2022-11-21T08:43:06.982Z,88.10
2022-11-21T08:45:35.369Z,88.90
2022-11-21T08:48:02.324Z,88.20
2022-11-21T08:50:29.381Z,88.60
2022-11-21T08:53:02.651Z,89.10
2022-11-21T08:55:30.583Z,88.30
2022-11-21T08:57:57.676Z,88.40
2022-11-21T09:00:25.147Z,88.80
2022-11-21T09:02:51.951Z,88.10
2022-11-21T09:05:18.651Z,88.40
2022-11-21T09:07:47.295Z,87.90
2022-11-21T09:10:15.689Z,87.80
2022-11-21T09:12:43.570Z,88.10
2022-11-21T09:15:30.111Z,88.50
2022-11-21T09:18:04.083Z,87.80
2022-11-21T09:20:37.973Z,87.60
2022-11-21T09:23:13.568Z,88.50
2022-11-21T09:25:40.764Z,88.30
2022-11-21T09:28:09.545Z,87.60
2022-11-21T09:30:37.126Z,87.70
2022-11-21T09:33:10.649Z,88.30
2022-11-21T09:35:37.716Z,88.60
2022-11-21T09:38:05.129Z,87.80
2022-11-21T09:40:33.674Z,87.10
2022-11-21T09:43:22.433Z,87.20
2022-11-21T09:45:51.676Z,87.50
2022-11-21T09:48:34.754Z,87.80
2022-11-21T09:51:10.457Z,87.80
2022-11-21T09:54:08.269Z,87.30
2022-11-21T09:56:39.672Z,86.20
2022-11-21T09:59:21.716Z,87.10
2022-11-21T10:01:48.674Z,85.60
2022-11-21T10:04:15.748Z,86.70
2022-11-21T10:07:12.993Z,86.90
2022-11-21T10:09:55.299Z,87.00
2022-11-21T10:12:37.064Z,86.80
2022-11-21T10:15:40.547Z,85.80
2022-11-21T10:19:01.575Z,85.20
2022-11-21T10:21:47.118Z,85.80
2022-11-21T10:24:41.761Z,85.30
2022-11-21T10:27:13.581Z,85.00
2022-11-21T10:29:53.471Z,85.00
2022-11-21T10:32:25.869Z,85.30
2022-11-21T10:34:57.742Z,84.80
2022-11-21T10:37:32.581Z,85.30
2022-11-21T10:40:14.868Z,85.50
2022-11-21T10:43:31.370Z,84.10
2022-11-21T10:45:58.099Z,82.80
2022-11-21T10:48:24.862Z,84.40
2022-11-21T10:50:54.413Z,83.50
2022-11-21T10:53:41.208Z,82.70
2022-11-21T10:56:10.508Z,82.10
2022-11-21T10:58:43.339Z,83.00
2022-11-21T11:01:22.679Z,82.40
2022-11-21T11:04:27.848Z,81.30
2022-11-21T11:06:52.682Z,83.00
2022-11-21T11:09:31.480Z,83.90
2022-11-21T11:12:16.826Z,83.50
2022-11-21T11:14:54.759Z,83.70
2022-11-21T11:17:33.809Z,84.50
2022-11-21T11:20:06.627Z,83.70
2022-11-21T11:22:33.732Z,85.00
2022-11-21T11:25:05.269Z,85.20
2022-11-21T11:27:32.869Z,83.90
2022-11-21T11:30:07.100Z,84.00
2022-11-21T11:32:40.516Z,85.10
2022-11-21T11:35:16.780Z,84.10
2022-11-21T11:38:00.485Z,82.80
2022-11-21T11:40:38.202Z,83.60
2022-11-21T11:43:29.736Z,82.80
2022-11-21T11:46:52.438Z,82.40
2022-11-21T11:50:01.149Z,81.40
2022-11-21T11:52:36.724Z,80.40
2022-11-21T11:55:15.625Z,81.30
2022-11-21T11:57:43.682Z,83.40
2022-11-21T12:00:30.567Z,84.30
2022-11-21T12:03:03.093Z,82.70
2022-11-21T12:05:32.283Z,80.30
2022-11-21T12:08:55.420Z,79.50
2022-11-21T12:12:02.384Z,81.50
2022-11-21T12:14:59.845Z,82.80
2022-11-21T12:17:58.874Z,83.50
2022-11-21T12:20:39.849Z,83.20
2022-11-21T12:23:10.182Z,84.00
2022-11-21T12:26:08.674Z,84.60
2022-11-21T12:29:00.078Z,84.20
2022-11-21T12:31:47.112Z,84.40
2022-11-21T12:34:51.295Z,84.00
2022-11-21T12:37:43.019Z,84.50
2022-11-21T12:40:28.403Z,84.50
2022-11-21T12:42:55.118Z,84.50
2022-11-21T12:45:33.834Z,84.80
2022-11-21T12:48:25.404Z,85.80
2022-11-21T12:51:34.739Z,84.80
2022-11-21T12:54:32.073Z,85.50
2022-11-21T12:57:15.071Z,85.00
2022-11-21T12:59:41.739Z,84.10
2022-11-21T13:02:28.261Z,84.70
2022-11-21T13:04:57.091Z,85.60
2022-11-21T13:07:29.627Z,85.10
2022-11-21T13:09:59.599Z,84.10
2022-11-21T13:12:45.548Z,83.70
2022-11-21T13:15:21.767Z,81.40
2022-11-21T13:18:22.908Z,75.80
2022-11-21T13:20:51.973Z,69.00
2022-11-21T13:23:38.808Z,63.80
2022-11-21T13:26:31.305Z,61.40
2022-11-21T13:29:12.882Z,61.50
2022-11-21T13:31:40.813Z,60.20
2022-11-21T13:34:35.136Z,60.60
2022-11-21T13:37:03.606Z,58.20
2022-11-21T13:39:33.061Z,56.40
2022-11-21T13:42:26.824Z,59.80
2022-11-21T13:44:54.517Z,65.00
2022-11-21T13:48:02.481Z,69.00
2022-11-21T13:50:54.321Z,71.60
2022-11-21T13:53:42.566Z,71.20
2022-11-21T13:56:33.375Z,73.20
2022-11-21T13:59:07.142Z,69.20
2022-11-21T14:02:04.431Z,66.30
2022-11-21T14:04:44.442Z,61.80
2022-11-21T14:07:33.839Z,59.00
2022-11-21T14:10:18.615Z,57.20
2022-11-21T14:12:49.335Z,55.80
2022-11-21T14:15:32.633Z,55.70
2022-11-21T14:18:01.150Z,56.80
2022-11-21T14:20:48.407Z,54.80
2022-11-21T14:23:21.308Z,56.10
2022-11-21T14:26:09.735Z,54.70
2022-11-21T14:28:36.525Z,55.40
2022-11-21T14:31:06.636Z,57.90
2022-11-21T14:33:44.341Z,61.90
2022-11-21T14:36:18.831Z,64.60
2022-11-21T14:39:21.361Z,65.20
2022-11-21T14:41:51.894Z,66.80
2022-11-21T14:44:21.180Z,69.00
2022-11-21T14:46:49.403Z,70.70
2022-11-21T14:49:16.735Z,73.00
2022-11-21T14:51:46.208Z,75.10
2022-11-21T14:54:25.685Z,77.50
2022-11-21T14:57:32.142Z,78.80
2022-11-21T14:59:59.493Z,79.70
2022-11-21T15:02:28.959Z,80.80
2022-11-21T15:05:02.715Z,81.80
2022-11-21T15:07:41.248Z,82.10
2022-11-21T15:10:31.493Z,82.80
2022-11-21T15:13:09.410Z,82.80
2022-11-21T15:15:43.748Z,83.80
2022-11-21T15:18:27.987Z,85.30
2022-11-21T15:20:59.161Z,85.30
2022-11-21T15:23:33.084Z,85.10
2022-11-21T15:26:01.500Z,86.50
2022-11-21T15:28:30.157Z,87.20
2022-11-21T15:31:19.759Z,87.50
2022-11-21T15:34:33.714Z,87.20
2022-11-21T15:37:17.121Z,87.00
2022-11-21T15:39:45.828Z,87.20
2022-11-21T15:42:49.470Z,87.60
2022-11-21T15:45:20.041Z,86.70
2022-11-21T15:47:48.131Z,87.10
2022-11-21T15:50:16.321Z,88.80
2022-11-21T15:52:51.555Z,89.60
2022-11-21T15:55:30.016Z,89.90
2022-11-21T15:57:57.066Z,90.30
2022-11-21T16:00:23.879Z,90.60
2022-11-21T16:02:50.572Z,90.10
2022-11-21T16:05:17.295Z,90.00
2022-11-21T16:07:44.069Z,91.10
2022-11-21T16:10:18.292Z,91.10
2022-11-21T16:12:47.054Z,90.90
2022-11-21T16:15:14.284Z,90.60
2022-11-21T16:17:41.678Z,91.00
2022-11-21T16:20:08.901Z,90.90
2022-11-21T16:22:35.600Z,91.30
2022-11-21T16:25:02.396Z,91.20
2022-11-21T16:27:32.182Z,91.50
2022-11-21T16:29:58.905Z,91.70
2022-11-21T16:32:26.375Z,92.00
2022-11-21T16:34:54.573Z,92.30
2022-11-21T16:37:21.314Z,92.20
2022-11-21T16:39:52.075Z,91.40
2022-11-21T16:42:19.711Z,91.50
2022-11-21T16:44:48.165Z,91.40
2022-11-21T16:47:15.533Z,91.70
2022-11-21T16:49:48.309Z,91.70
2022-11-21T16:52:15.990Z,91.60
2022-11-21T16:54:42.857Z,92.00
2022-11-21T16:57:09.637Z,91.90
2022-11-21T16:59:36.672Z,92.50
2022-11-21T17:02:03.740Z,92.30
2022-11-21T17:04:30.998Z,92.60
2022-11-21T17:06:58.030Z,92.80
2022-11-21T17:09:24.828Z,92.50
2022-11-21T17:11:51.618Z,92.40
2022-11-21T17:14:18.382Z,92.50
2022-11-21T17:16:45.804Z,92.60
2022-11-21T17:19:16.169Z,91.70
2022-11-21T17:21:43.129Z,91.70
2022-11-21T17:24:13.036Z,92.10
2022-11-21T17:26:40.025Z,92.10
2022-11-21T17:29:07.109Z,92.30
2022-11-21T17:31:34.395Z,91.80
2022-11-21T17:34:01.785Z,92.00
2022-11-21T17:36:30.670Z,92.80
2022-11-21T17:38:57.642Z,93.50
2022-11-21T17:41:25.827Z,93.30
2022-11-21T17:43:56.875Z,93.50
2022-11-21T17:46:25.426Z,93.70
2022-11-21T17:48:57.277Z,93.60
2022-11-21T17:51:34.182Z,93.40
2022-11-21T17:54:02.137Z,93.60
2022-11-21T17:56:31.572Z,93.10
2022-11-21T17:58:58.361Z,93.00
2022-11-21T18:01:25.355Z,93.10
2022-11-21T18:03:57.237Z,93.30
2022-11-21T18:06:25.167Z,93.50
2022-11-21T18:08:52.010Z,93.60
2022-11-21T18:11:21.630Z,93.60
2022-11-21T18:13:49.667Z,93.40
2022-11-21T18:16:18.809Z,93.30
2022-11-21T18:18:45.657Z,93.40
2022-11-21T18:21:18.009Z,93.90
2022-11-21T18:23:45.184Z,94.30
2022-11-21T18:26:14.843Z,94.60
2022-11-21T18:28:41.894Z,94.60
2022-11-21T18:31:15.743Z,94.60
2022-11-21T18:33:42.942Z,94.70
2022-11-21T18:36:11.407Z,95.00
2022-11-21T18:38:48.832Z,94.80
2022-11-21T18:41:26.886Z,95.10
2022-11-21T18:43:58.777Z,95.10
2022-11-21T18:46:27.727Z,95.00
2022-11-21T18:49:02.733Z,94.80
2022-11-21T18:51:31.966Z,94.80
2022-11-21T18:54:03.148Z,94.50
2022-11-21T18:56:30.493Z,94.50
2022-11-21T18:58:59.008Z,95.00
2022-11-21T19:01:28.202Z,94.60
2022-11-21T19:03:55.812Z,94.80
2022-11-21T19:06:24.037Z,94.90
2022-11-21T19:08:53.302Z,95.00
2022-11-21T19:11:21.823Z,95.30
2022-11-21T19:13:49.093Z,95.20
2022-11-21T19:16:19.601Z,94.90
2022-11-21T19:19:05.374Z,94.60
2022-11-21T19:21:39.242Z,94.80
2022-11-21T19:24:07.464Z,94.70
2022-11-21T19:26:34.297Z,94.80
2022-11-21T19:29:01.498Z,95.00
2022-11-21T19:31:28.765Z,95.00
2022-11-21T19:33:55.894Z,95.10
2022-11-21T19:36:23.952Z,95.30
2022-11-21T19:38:51.965Z,95.40
2022-11-21T19:41:26.126Z,95.40
2022-11-21T19:43:55.402Z,95.40
2022-11-21T19:46:25.045Z,95.30
2022-11-21T19:48:54.062Z,95.20
2022-11-21T19:51:23.571Z,95.00
2022-11-21T19:53:50.391Z,95.00
2022-11-21T19:56:22.881Z,94.80
2022-11-21T19:58:50.241Z,94.70
2022-11-21T20:01:18.201Z,94.70
2022-11-21T20:03:47.211Z,94.60
2022-11-21T20:06:22.955Z,94.60
2022-11-21T20:08:55.037Z,94.60
2022-11-21T20:11:22.725Z,94.70
2022-11-21T20:13:51.253Z,94.80
2022-11-21T20:16:33.265Z,94.70
2022-11-21T20:19:02.572Z,94.80
2022-11-21T20:21:30.257Z,95.00
2022-11-21T20:23:57.429Z,94.90
2022-11-21T20:26:25.406Z,94.40
2022-11-21T20:28:53.156Z,94.60
2022-11-21T20:31:30.561Z,94.70
2022-11-21T20:34:00.741Z,94.90
2022-11-21T20:36:33.304Z,94.70
2022-11-21T20:39:12.761Z,94.90
2022-11-21T20:41:39.579Z,95.00
2022-11-21T20:46:57.317Z,94.80
2022-11-21T20:49:24.068Z,94.90
2022-11-21T20:53:31.297Z,94.80
2022-11-21T20:54:38.319Z,94.80
2022-11-21T20:57:09.208Z,95.10
2022-11-21T20:59:39.948Z,95.30
2022-11-21T21:02:08.451Z,95.40
2022-11-21T21:04:35.178Z,95.30
2022-11-21T21:07:01.937Z,95.30
2022-11-21T21:09:29.033Z,95.20
2022-11-21T21:11:55.934Z,95.20
2022-11-21T21:14:22.983Z,94.60
2022-11-21T21:16:50.137Z,94.70
2022-11-21T21:19:17.785Z,94.90
2022-11-21T21:21:44.800Z,95.10
2022-11-21T21:24:12.294Z,95.10
2022-11-21T21:26:42.909Z,95.20
2022-11-21T21:29:18.568Z,95.30
2022-11-21T21:31:51.027Z,95.50
2022-11-21T21:34:20.385Z,95.70
2022-11-21T21:36:47.423Z,95.50
2022-11-21T21:39:14.413Z,95.50
2022-11-21T21:41:44.520Z,95.20
2022-11-21T21:44:12.168Z,95.20
2022-11-21T21:46:38.901Z,95.30
2022-11-21T21:49:05.646Z,95.10
2022-11-21T21:51:32.609Z,95.00
2022-11-21T21:53:59.820Z,94.90
2022-11-21T21:56:28.987Z,94.80
2022-11-21T21:58:59.466Z,94.90
2022-11-21T22:01:28.793Z,95.10
2022-11-21T22:04:00.358Z,95.10
2022-11-21T22:06:27.300Z,95.00
2022-11-21T22:08:54.822Z,94.90
2022-11-21T22:11:26.542Z,94.90
2022-11-21T22:13:55.385Z,94.70
2022-11-21T22:16:22.413Z,94.70
2022-11-21T22:18:49.341Z,94.60
2022-11-21T22:21:21.635Z,94.50
2022-11-21T22:24:22.964Z,94.60
2022-11-21T22:26:35.244Z,94.50
2022-11-21T22:29:02.167Z,94.60
2022-11-21T22:31:32.781Z,94.40
2022-11-21T22:34:00.352Z,94.40
2022-11-21T22:36:27.165Z,94.30
2022-11-21T22:38:55.032Z,94.50
2022-11-21T22:41:24.489Z,94.20
2022-11-21T22:43:56.552Z,94.10
2022-11-21T22:46:25.110Z,93.90
2022-11-21T22:48:51.869Z,94.00
2022-11-21T22:51:21.005Z,94.00
2022-11-21T22:53:48.738Z,93.90
2022-11-21T22:56:17.810Z,93.90
2022-11-21T22:58:45.477Z,93.90
2022-11-21T23:01:22.355Z,94.20
2022-11-21T23:03:49.907Z,94.30
2022-11-21T23:06:23.492Z,94.10
2022-11-21T23:08:51.722Z,93.90
2022-11-21T23:11:22.714Z,93.90
2022-11-21T23:13:49.870Z,94.00
2022-11-21T23:16:17.106Z,94.10
2022-11-21T23:18:44.477Z,94.40
2022-11-21T23:21:13.034Z,94.20
2022-11-21T23:23:40.477Z,94.20
2022-11-21T23:26:07.860Z,94.30
2022-11-21T23:28:34.707Z,94.20
2022-11-21T23:31:01.463Z,94.00
2022-11-21T23:33:28.178Z,93.70
2022-11-21T23:35:55.162Z,93.60
2022-11-21T23:38:22.157Z,93.50
2022-11-21T23:40:49.792Z,93.70
2022-11-21T23:43:18.198Z,93.80
2022-11-21T23:45:49.172Z,93.90
2022-11-21T23:48:15.904Z,94.00
2022-11-21T23:50:42.678Z,94.00
2022-11-21T23:53:09.435Z,94.00
2022-11-21T23:55:36.157Z,94.30
2022-11-21T23:58:02.959Z,94.40
